sensor_id;sensor_type;location;lat;lon;timestamp;pressure;altitude;pressure_sealevel;temperature;humidity
71424;BME280;59240;51.370;-0.486;2023-05-08T00:02:10;101978.75;;;13.56;80.40
71424;BME280;59240;51.370;-0.486;2023-05-08T00:04:37;101974.44;;;13.51;79.99
71424;BME280;59240;51.370;-0.486;2023-05-08T00:07:04;101977.09;;;13.49;80.49
71424;BME280;59240;51.370;-0.486;2023-05-08T00:09:30;101972.78;;;13.47;80.21
71424;BME280;59240;51.370;-0.486;2023-05-08T00:11:57;101964.06;;;13.45;80.61
71424;BME280;59240;51.370;-0.486;2023-05-08T00:14:23;101963.28;;;13.41;79.87
71424;BME280;59240;51.370;-0.486;2023-05-08T00:16:50;101958.03;;;13.41;79.92
71424;BME280;59240;51.370;-0.486;2023-05-08T00:19:16;101955.44;;;13.38;80.33
71424;BME280;59240;51.370;-0.486;2023-05-08T00:21:43;101921.72;;;13.17;80.50
71424;BME280;59240;51.370;-0.486;2023-05-08T00:24:10;101963.41;;;13.32;80.70
71424;BME280;59240;51.370;-0.486;2023-05-08T00:26:36;101957.34;;;13.28;81.25
71424;BME280;59240;51.370;-0.486;2023-05-08T00:29:03;101941.00;;;13.11;80.90
71424;BME280;59240;51.370;-0.486;2023-05-08T00:31:32;101957.47;;;13.16;81.43
71424;BME280;59240;51.370;-0.486;2023-05-08T00:33:58;101959.22;;;13.19;81.30
71424;BME280;59240;51.370;-0.486;2023-05-08T00:36:25;101961.00;;;13.13;80.60
71424;BME280;59240;51.370;-0.486;2023-05-08T00:38:53;101978.41;;;13.16;81.06
71424;BME280;59240;51.370;-0.486;2023-05-08T00:41:19;101961.03;;;13.12;81.54
71424;BME280;59240;51.370;-0.486;2023-05-08T00:43:46;101954.09;;;13.08;81.65
71424;BME280;59240;51.370;-0.486;2023-05-08T00:46:12;101953.25;;;13.07;81.64
71424;BME280;59240;51.370;-0.486;2023-05-08T00:48:39;101969.78;;;13.09;81.62
71424;BME280;59240;51.370;-0.486;2023-05-08T00:51:07;101960.25;;;13.05;81.45
71424;BME280;59240;51.370;-0.486;2023-05-08T00:53:38;101942.94;;;12.95;81.62
71424;BME280;59240;51.370;-0.486;2023-05-08T00:56:05;101968.13;;;13.04;81.83
71424;BME280;59240;51.370;-0.486;2023-05-08T00:58:33;101949.09;;;12.93;81.98
71424;BME280;59240;51.370;-0.486;2023-05-08T01:01:00;101953.38;;;12.98;81.85
71424;BME280;59240;51.370;-0.486;2023-05-08T01:03:27;101962.13;;;12.97;82.20
71424;BME280;59240;51.370;-0.486;2023-05-08T01:05:54;101963.88;;;12.94;82.14
71424;BME280;59240;51.370;-0.486;2023-05-08T01:08:21;101962.19;;;12.91;82.11
71424;BME280;59240;51.370;-0.486;2023-05-08T01:11:35;101959.53;;;12.94;83.67
71424;BME280;59240;51.370;-0.486;2023-05-08T01:16:45;101948.22;;;12.92;82.45
71424;BME280;59240;51.370;-0.486;2023-05-08T01:19:30;101945.59;;;12.92;83.12
71424;BME280;59240;51.370;-0.486;2023-05-08T01:22:19;101930.06;;;12.80;82.78
71424;BME280;59240;51.370;-0.486;2023-05-08T01:30:18;101937.06;;;12.78;83.86
71424;BME280;59240;51.370;-0.486;2023-05-08T01:32:53;101925.88;;;12.67;83.00
71424;BME280;59240;51.370;-0.486;2023-05-08T01:35:39;101951.06;;;12.74;82.78
71424;BME280;59240;51.370;-0.486;2023-05-08T01:38:18;101925.91;;;12.62;82.76
71424;BME280;59240;51.370;-0.486;2023-05-08T01:43:52;101952.03;;;12.67;83.75
71424;BME280;59240;51.370;-0.486;2023-05-08T01:46:26;101954.69;;;12.64;82.89
71424;BME280;59240;51.370;-0.486;2023-05-08T01:49:01;101951.19;;;12.62;82.69
71424;BME280;59240;51.370;-0.486;2023-05-08T01:51:36;101953.88;;;12.58;82.78
71424;BME280;59240;51.370;-0.486;2023-05-08T01:54:05;101958.25;;;12.56;82.98
71424;BME280;59240;51.370;-0.486;2023-05-08T01:56:36;101930.59;;;12.36;82.60
71424;BME280;59240;51.370;-0.486;2023-05-08T01:59:05;101961.78;;;12.51;82.39
71424;BME280;59240;51.370;-0.486;2023-05-08T02:01:33;101954.78;;;12.53;82.35
71424;BME280;59240;51.370;-0.486;2023-05-08T02:04:01;101960.94;;;12.47;83.14
71424;BME280;59240;51.370;-0.486;2023-05-08T02:06:29;101950.50;;;12.47;82.67
71424;BME280;59240;51.370;-0.486;2023-05-08T02:08:58;101953.88;;;12.55;82.49
71424;BME280;59240;51.370;-0.486;2023-05-08T02:11:28;101936.66;;;12.39;83.08
71424;BME280;59240;51.370;-0.486;2023-05-08T02:13:58;101948.81;;;12.40;82.81
71424;BME280;59240;51.370;-0.486;2023-05-08T02:16:27;101948.81;;;12.40;83.38
71424;BME280;59240;51.370;-0.486;2023-05-08T02:18:56;101946.25;;;12.37;83.36
71424;BME280;59240;51.370;-0.486;2023-05-08T02:21:25;101926.28;;;12.31;82.70
71424;BME280;59240;51.370;-0.486;2023-05-08T02:23:53;101945.41;;;12.35;83.15
71424;BME280;59240;51.370;-0.486;2023-05-08T02:26:22;101953.22;;;12.35;83.12
71424;BME280;59240;51.370;-0.486;2023-05-08T02:28:52;101953.25;;;12.33;82.49
71424;BME280;59240;51.370;-0.486;2023-05-08T02:31:19;101947.22;;;12.30;83.17
71424;BME280;59240;51.370;-0.486;2023-05-08T02:33:47;101950.72;;;12.29;83.56
71424;BME280;59240;51.370;-0.486;2023-05-08T02:36:16;101950.69;;;12.27;83.28
71424;BME280;59240;51.370;-0.486;2023-05-08T02:38:46;101919.59;;;12.04;83.30
71424;BME280;59240;51.370;-0.486;2023-05-08T02:41:17;101942.94;;;12.20;83.32
71424;BME280;59240;51.370;-0.486;2023-05-08T02:43:44;101945.59;;;12.17;82.97
71424;BME280;59240;51.370;-0.486;2023-05-08T02:46:15;101941.25;;;12.14;82.83
71424;BME280;59240;51.370;-0.486;2023-05-08T02:48:58;101936.94;;;12.15;83.51
71424;BME280;59240;51.370;-0.486;2023-05-08T02:51:46;101940.44;;;12.11;83.88
71424;BME280;59240;51.370;-0.486;2023-05-08T02:57:09;101934.28;;;12.18;82.99
71424;BME280;59240;51.370;-0.486;2023-05-08T02:59:42;101924.88;;;12.01;82.50
71424;BME280;59240;51.370;-0.486;2023-05-08T03:02:16;101924.03;;;11.93;83.12
71424;BME280;59240;51.370;-0.486;2023-05-08T03:04:50;101926.69;;;11.90;82.99
71424;BME280;59240;51.370;-0.486;2023-05-08T03:07:20;101930.19;;;11.89;83.11
71424;BME280;59240;51.370;-0.486;2023-05-08T03:09:52;101925.94;;;11.81;83.20
71424;BME280;59240;51.370;-0.486;2023-05-08T03:12:22;101913.75;;;11.75;83.01
71424;BME280;59240;51.370;-0.486;2023-05-08T03:15:03;101922.41;;;11.78;83.87
71424;BME280;59240;51.370;-0.486;2023-05-08T03:17:32;101925.88;;;11.79;83.23
71424;BME280;59240;51.370;-0.486;2023-05-08T03:20:05;101926.78;;;11.78;83.54
71424;BME280;59240;51.370;-0.486;2023-05-08T03:22:34;101919.91;;;11.68;83.07
71424;BME280;59240;51.370;-0.486;2023-05-08T03:25:04;101925.94;;;11.71;83.32
71424;BME280;59240;51.370;-0.486;2023-05-08T03:27:31;101935.53;;;11.71;82.75
71424;BME280;59240;51.370;-0.486;2023-05-08T03:30:00;101926.00;;;11.68;83.29
71424;BME280;59240;51.370;-0.486;2023-05-08T03:32:28;101919.06;;;11.63;83.02
71424;BME280;59240;51.370;-0.486;2023-05-08T03:34:58;101925.13;;;11.65;83.93
71424;BME280;59240;51.370;-0.486;2023-05-08T03:37:27;101922.53;;;11.63;83.59
71424;BME280;59240;51.370;-0.486;2023-05-08T03:39:54;101922.53;;;11.63;83.30
71424;BME280;59240;51.370;-0.486;2023-05-08T03:42:25;101919.97;;;11.57;83.53
71424;BME280;59240;51.370;-0.486;2023-05-08T03:44:53;101917.38;;;11.57;83.82
71424;BME280;59240;51.370;-0.486;2023-05-08T03:47:20;101907.88;;;11.45;83.19
71424;BME280;59240;51.370;-0.486;2023-05-08T03:49:48;101920.88;;;11.55;83.37
71424;BME280;59240;51.370;-0.486;2023-05-08T03:52:15;101906.16;;;11.44;83.22
71424;BME280;59240;51.370;-0.486;2023-05-08T03:54:42;101918.28;;;11.51;83.06
71424;BME280;59240;51.370;-0.486;2023-05-08T03:57:08;101894.91;;;11.39;83.51
71424;BME280;59240;51.370;-0.486;2023-05-08T04:00:18;101914.81;;;11.49;84.58
71424;BME280;59240;51.370;-0.486;2023-05-08T04:02:55;101907.03;;;11.45;84.12
71424;BME280;59240;51.370;-0.486;2023-05-08T04:05:34;101903.56;;;11.43;84.79
71424;BME280;59240;51.370;-0.486;2023-05-08T04:08:14;101908.81;;;11.41;83.85
71424;BME280;59240;51.370;-0.486;2023-05-08T04:10:45;101908.81;;;11.40;83.97
71424;BME280;59240;51.370;-0.486;2023-05-08T04:13:19;101914.91;;;11.40;84.32
71424;BME280;59240;51.370;-0.486;2023-05-08T04:15:51;101911.41;;;11.38;84.00
71424;BME280;59240;51.370;-0.486;2023-05-08T04:18:23;101909.69;;;11.37;83.98
71424;BME280;59240;51.370;-0.486;2023-05-08T04:20:53;101909.72;;;11.34;84.05
71424;BME280;59240;51.370;-0.486;2023-05-08T04:23:22;101908.00;;;11.33;84.02
71424;BME280;59240;51.370;-0.486;2023-05-08T04:25:50;101907.97;;;11.35;83.81
71424;BME280;59240;51.370;-0.486;2023-05-08T04:28:18;101862.97;;;11.07;84.44
71424;BME280;59240;51.370;-0.486;2023-05-08T04:30:45;101876.78;;;11.21;84.59
71424;BME280;59240;51.370;-0.486;2023-05-08T04:33:13;101866.41;;;11.13;84.73
71424;BME280;59240;51.370;-0.486;2023-05-08T04:35:41;101897.53;;;11.36;84.51
71424;BME280;59240;51.370;-0.486;2023-05-08T04:38:07;101907.09;;;11.37;84.67
71424;BME280;59240;51.370;-0.486;2023-05-08T04:40:34;101895.75;;;11.38;84.50
71424;BME280;59240;51.370;-0.486;2023-05-08T04:43:00;101897.47;;;11.42;84.63
71424;BME280;59240;51.370;-0.486;2023-05-08T04:45:27;101890.53;;;11.41;85.23
71424;BME280;59240;51.370;-0.486;2023-05-08T04:47:53;101894.00;;;11.43;85.30
71424;BME280;59240;51.370;-0.486;2023-05-08T04:50:20;101898.28;;;11.50;85.90
71424;BME280;59240;51.370;-0.486;2023-05-08T04:52:47;101904.34;;;11.52;85.81
71424;BME280;59240;51.370;-0.486;2023-05-08T04:55:14;101902.63;;;11.55;85.87
71424;BME280;59240;51.370;-0.486;2023-05-08T04:57:40;101908.63;;;11.63;86.25
71424;BME280;59240;51.370;-0.486;2023-05-08T05:00:07;101892.13;;;11.61;85.94
71424;BME280;59240;51.370;-0.486;2023-05-08T05:02:34;101891.19;;;11.66;85.76
71424;BME280;59240;51.370;-0.486;2023-05-08T05:05:01;101896.38;;;11.71;85.88
71424;BME280;59240;51.370;-0.486;2023-05-08T05:07:27;101911.94;;;11.85;86.19
71424;BME280;59240;51.370;-0.486;2023-05-08T05:09:54;101902.34;;;11.88;86.30
71424;BME280;59240;51.370;-0.486;2023-05-08T05:12:20;101913.59;;;11.95;86.76
71424;BME280;59240;51.370;-0.486;2023-05-08T05:14:47;101903.97;;;12.00;86.56
71424;BME280;59240;51.370;-0.486;2023-05-08T05:17:15;101907.44;;;12.03;87.11
71424;BME280;59240;51.370;-0.486;2023-05-08T05:19:42;101916.03;;;12.12;86.75
71424;BME280;59240;51.370;-0.486;2023-05-08T05:22:09;101915.97;;;12.18;86.90
71424;BME280;59240;51.370;-0.486;2023-05-08T05:24:35;101906.50;;;12.09;87.16
71424;BME280;59240;51.370;-0.486;2023-05-08T05:27:02;101926.38;;;12.24;87.15
71424;BME280;59240;51.370;-0.486;2023-05-08T05:29:29;101913.31;;;12.21;87.20
71424;BME280;59240;51.370;-0.486;2023-05-08T05:31:56;101921.97;;;12.29;86.60
71424;BME280;59240;51.370;-0.486;2023-05-08T05:34:23;101934.84;;;12.44;86.37
71424;BME280;59240;51.370;-0.486;2023-05-08T05:36:49;101914.03;;;12.38;86.64
71424;BME280;59240;51.370;-0.486;2023-05-08T05:39:15;101945.19;;;12.56;86.81
71424;BME280;59240;51.370;-0.486;2023-05-08T05:41:42;101928.66;;;12.53;87.18
71424;BME280;59240;51.370;-0.486;2023-05-08T05:44:09;101939.75;;;12.72;86.99
71424;BME280;59240;51.370;-0.486;2023-05-08T05:46:37;101943.16;;;12.80;87.33
71424;BME280;59240;51.370;-0.486;2023-05-08T05:49:03;101959.56;;;12.91;86.99
71424;BME280;59240;51.370;-0.486;2023-05-08T05:51:30;101956.91;;;12.94;87.20
71424;BME280;59240;51.370;-0.486;2023-05-08T05:53:56;101953.47;;;12.89;87.10
71424;BME280;59240;51.370;-0.486;2023-05-08T05:56:23;101946.50;;;12.90;86.50
71424;BME280;59240;51.370;-0.486;2023-05-08T05:58:49;101960.34;;;12.99;86.76
71424;BME280;59240;51.370;-0.486;2023-05-08T06:01:16;101952.53;;;12.95;86.53
71424;BME280;59240;51.370;-0.486;2023-05-08T06:03:43;101949.91;;;12.96;86.08
71424;BME280;59240;51.370;-0.486;2023-05-08T06:06:10;101944.78;;;12.87;86.71
71424;BME280;59240;51.370;-0.486;2023-05-08T06:08:36;101967.25;;;13.02;86.26
71424;BME280;59240;51.370;-0.486;2023-05-08T06:11:03;101947.44;;;12.85;86.32
71424;BME280;59240;51.370;-0.486;2023-05-08T06:13:29;101981.19;;;13.05;86.85
71424;BME280;59240;51.370;-0.486;2023-05-08T06:15:57;101983.81;;;13.05;86.41
71424;BME280;59240;51.370;-0.486;2023-05-08T06:18:23;101975.13;;;13.02;86.01
71424;BME280;59240;51.370;-0.486;2023-05-08T06:20:57;101982.91;;;13.06;87.24
71424;BME280;59240;51.370;-0.486;2023-05-08T06:23:24;101974.25;;;13.01;86.76
71424;BME280;59240;51.370;-0.486;2023-05-08T06:25:51;101990.72;;;13.11;86.46
71424;BME280;59240;51.370;-0.486;2023-05-08T06:28:17;101986.28;;;13.14;86.58
71424;BME280;59240;51.370;-0.486;2023-05-08T06:30:44;101973.22;;;13.13;87.02
71424;BME280;59240;51.370;-0.486;2023-05-08T06:33:11;101991.47;;;13.21;86.24
71424;BME280;59240;51.370;-0.486;2023-05-08T06:35:40;101981.81;;;13.26;86.14
71424;BME280;59240;51.370;-0.486;2023-05-08T06:38:06;101972.31;;;13.15;87.06
71424;BME280;59240;51.370;-0.486;2023-05-08T06:40:33;101983.47;;;13.33;86.53
71424;BME280;59240;51.370;-0.486;2023-05-08T06:43:02;101991.09;;;13.48;85.71
71424;BME280;59240;51.370;-0.486;2023-05-08T06:45:28;101969.31;;;13.46;85.86
71424;BME280;59240;51.370;-0.486;2023-05-08T06:47:54;101981.22;;;13.67;86.27
71424;BME280;59240;51.370;-0.486;2023-05-08T06:50:21;101977.56;;;13.76;86.83
71424;BME280;59240;51.370;-0.486;2023-05-08T06:52:48;101980.81;;;13.90;86.15
71424;BME280;59240;51.370;-0.486;2023-05-08T06:55:15;101974.47;;;14.05;86.33
71424;BME280;59240;51.370;-0.486;2023-05-08T06:57:41;101953.47;;;14.06;86.16
71424;BME280;59240;51.370;-0.486;2023-05-08T07:00:08;101967.06;;;14.27;85.88
71424;BME280;59240;51.370;-0.486;2023-05-08T07:02:36;101968.56;;;14.40;84.87
71424;BME280;59240;51.370;-0.486;2023-05-08T07:05:03;101979.66;;;14.57;84.71
71424;BME280;59240;51.370;-0.486;2023-05-08T07:07:30;101983.88;;;14.64;84.69
71424;BME280;59240;51.370;-0.486;2023-05-08T07:09:57;101984.53;;;14.75;84.74
71424;BME280;59240;51.370;-0.486;2023-05-08T07:12:23;101978.38;;;14.78;84.41
71424;BME280;59240;51.370;-0.486;2023-05-08T07:14:50;101967.16;;;14.70;83.73
71424;BME280;59240;51.370;-0.486;2023-05-08T07:17:16;101976.47;;;14.85;83.67
71424;BME280;59240;51.370;-0.486;2023-05-08T07:19:43;101961.53;;;14.88;83.65
71424;BME280;59240;51.370;-0.486;2023-05-08T07:22:09;101972.44;;;15.10;83.74
71424;BME280;59240;51.370;-0.486;2023-05-08T07:24:36;101962.00;;;15.07;83.73
71424;BME280;59240;51.370;-0.486;2023-05-08T07:27:03;101972.38;;;15.13;83.10
71424;BME280;59240;51.370;-0.486;2023-05-08T07:29:29;101977.34;;;15.25;83.01
71424;BME280;59240;51.370;-0.486;2023-05-08T07:31:56;101950.56;;;15.11;83.31
71424;BME280;59240;51.370;-0.486;2023-05-08T07:34:26;101951.19;;;15.21;82.74
71424;BME280;59240;51.370;-0.486;2023-05-08T07:36:53;101962.19;;;15.37;82.47
71424;BME280;59240;51.370;-0.486;2023-05-08T07:39:20;101945.81;;;15.27;82.15
71424;BME280;59240;51.370;-0.486;2023-05-08T07:41:47;101964.78;;;15.40;82.26
71424;BME280;59240;51.370;-0.486;2023-05-08T07:44:15;101973.41;;;15.45;81.96
71424;BME280;59240;51.370;-0.486;2023-05-08T07:46:42;101961.97;;;15.47;81.56
71424;BME280;59240;51.370;-0.486;2023-05-08T07:49:09;101969.75;;;15.52;82.06
71424;BME280;59240;51.370;-0.486;2023-05-08T07:51:39;101957.56;;;15.48;81.52
71424;BME280;59240;51.370;-0.486;2023-05-08T07:54:06;101931.69;;;15.32;81.22
71424;BME280;59240;51.370;-0.486;2023-05-08T07:56:33;101948.03;;;15.45;81.47
71424;BME280;59240;51.370;-0.486;2023-05-08T07:58:59;101949.03;;;15.40;80.45
71424;BME280;59240;51.370;-0.486;2023-05-08T08:01:26;101943.63;;;15.46;81.87
71424;BME280;59240;51.370;-0.486;2023-05-08T08:03:53;101954.75;;;15.55;80.80
71424;BME280;59240;51.370;-0.486;2023-05-08T08:06:19;101938.38;;;15.46;81.01
71424;BME280;59240;51.370;-0.486;2023-05-08T08:08:47;101934.91;;;15.44;80.98
71424;BME280;59240;51.370;-0.486;2023-05-08T08:11:14;101955.59;;;15.57;80.48
71424;BME280;59240;51.370;-0.486;2023-05-08T08:13:40;101949.50;;;15.55;80.27
71424;BME280;59240;51.370;-0.486;2023-05-08T08:16:07;101958.13;;;15.62;80.73
71424;BME280;59240;51.370;-0.486;2023-05-08T08:18:35;101953.56;;;15.70;80.61
71424;BME280;59240;51.370;-0.486;2023-05-08T08:21:05;101952.50;;;15.77;80.18
71424;BME280;59240;51.370;-0.486;2023-05-08T08:23:32;101953.41;;;15.76;79.90
71424;BME280;59240;51.370;-0.486;2023-05-08T08:25:59;101941.06;;;15.80;79.93
71424;BME280;59240;51.370;-0.486;2023-05-08T08:28:28;101933.19;;;15.80;79.65
71424;BME280;59240;51.370;-0.486;2023-05-08T08:30:54;101913.03;;;15.80;79.74
71424;BME280;59240;51.370;-0.486;2023-05-08T08:33:21;101934.41;;;16.01;79.44
71424;BME280;59240;51.370;-0.486;2023-05-08T08:35:53;101941.88;;;16.16;79.27
71424;BME280;59240;51.370;-0.486;2023-05-08T08:38:20;101925.25;;;16.16;78.81
71424;BME280;59240;51.370;-0.486;2023-05-08T08:40:47;101933.03;;;16.19;77.92
71424;BME280;59240;51.370;-0.486;2023-05-08T08:43:13;101941.63;;;16.25;77.39
71424;BME280;59240;51.370;-0.486;2023-05-08T08:45:40;101931.25;;;16.19;78.09
71424;BME280;59240;51.370;-0.486;2023-05-08T08:48:09;101942.25;;;16.35;77.97
71424;BME280;59240;51.370;-0.486;2023-05-08T08:50:41;101917.84;;;16.30;77.69
71424;BME280;59240;51.370;-0.486;2023-05-08T08:53:24;101943.72;;;16.45;77.50
71424;BME280;59240;51.370;-0.486;2023-05-08T08:55:53;101922.63;;;16.47;77.07
71424;BME280;59240;51.370;-0.486;2023-05-08T08:58:26;101943.38;;;16.57;77.38
71424;BME280;59240;51.370;-0.486;2023-05-08T09:00:58;101911.59;;;16.34;75.19
71424;BME280;59240;51.370;-0.486;2023-05-08T09:03:26;101920.25;;;16.37;76.23
71424;BME280;59240;51.370;-0.486;2023-05-08T09:05:53;101910.69;;;16.35;76.50
71424;BME280;59240;51.370;-0.486;2023-05-08T09:08:20;101913.38;;;16.33;75.89
71424;BME280;59240;51.370;-0.486;2023-05-08T09:10:47;101930.59;;;16.44;76.07
71424;BME280;59240;51.370;-0.486;2023-05-08T09:13:14;101923.53;;;16.46;76.40
71424;BME280;59240;51.370;-0.486;2023-05-08T09:15:42;101911.38;;;16.41;76.17
71424;BME280;59240;51.370;-0.486;2023-05-08T09:18:09;101921.75;;;16.48;75.19
71424;BME280;59240;51.370;-0.486;2023-05-08T09:20:36;101913.00;;;16.46;76.06
71424;BME280;59240;51.370;-0.486;2023-05-08T09:23:06;101926.91;;;16.51;75.75
71424;BME280;59240;51.370;-0.486;2023-05-08T09:25:46;101932.97;;;16.53;74.71
71424;BME280;59240;51.370;-0.486;2023-05-08T09:28:21;101930.56;;;16.45;75.38
71424;BME280;59240;51.370;-0.486;2023-05-08T09:33:19;101929.75;;;16.43;75.25
71424;BME280;59240;51.370;-0.486;2023-05-08T09:35:47;101930.72;;;16.40;75.24
71424;BME280;59240;51.370;-0.486;2023-05-08T09:38:36;101934.16;;;16.42;75.50
71424;BME280;59240;51.370;-0.486;2023-05-08T09:41:11;101925.19;;;16.50;75.84
71424;BME280;59240;51.370;-0.486;2023-05-08T09:43:59;101915.25;;;16.59;75.94
71424;BME280;59240;51.370;-0.486;2023-05-08T09:46:26;101920.97;;;16.75;75.53
71424;BME280;59240;51.370;-0.486;2023-05-08T09:48:57;101899.13;;;16.72;75.54
71424;BME280;59240;51.370;-0.486;2023-05-08T09:51:29;101894.88;;;16.66;75.26
71424;BME280;59240;51.370;-0.486;2023-05-08T09:53:58;101915.31;;;16.87;74.10
71424;BME280;59240;51.370;-0.486;2023-05-08T09:56:36;101905.06;;;16.78;73.83
71424;BME280;59240;51.370;-0.486;2023-05-08T10:01:47;101902.69;;;16.69;74.06
71424;BME280;59240;51.370;-0.486;2023-05-08T10:04:16;101903.53;;;16.71;74.75
71424;BME280;59240;51.370;-0.486;2023-05-08T10:06:56;101902.69;;;16.71;74.99
71424;BME280;59240;51.370;-0.486;2023-05-08T10:09:25;101911.88;;;16.85;74.49
71424;BME280;59240;51.370;-0.486;2023-05-08T10:12:07;101893.59;;;16.81;74.81
71424;BME280;59240;51.370;-0.486;2023-05-08T10:14:33;101898.97;;;16.78;74.58
71424;BME280;59240;51.370;-0.486;2023-05-08T10:17:06;101882.31;;;16.77;73.70
71424;BME280;59240;51.370;-0.486;2023-05-08T10:19:39;101877.72;;;16.84;74.65
71424;BME280;59240;51.370;-0.486;2023-05-08T10:22:10;101885.31;;;16.93;74.28
71424;BME280;59240;51.370;-0.486;2023-05-08T10:24:43;101866.91;;;16.93;74.60
71424;BME280;59240;51.370;-0.486;2023-05-08T10:27:22;101861.63;;;16.93;72.94
71424;BME280;59240;51.370;-0.486;2023-05-08T10:29:55;101861.38;;;17.01;73.81
71424;BME280;59240;51.370;-0.486;2023-05-08T10:32:22;101873.00;;;17.21;74.02
71424;BME280;59240;51.370;-0.486;2023-05-08T10:34:55;101883.22;;;17.32;73.23
71424;BME280;59240;51.370;-0.486;2023-05-08T10:37:24;101869.25;;;17.30;73.82
71424;BME280;59240;51.370;-0.486;2023-05-08T10:39:53;101888.78;;;17.49;73.37
71424;BME280;59240;51.370;-0.486;2023-05-08T10:42:23;101876.50;;;17.48;73.18
71424;BME280;59240;51.370;-0.486;2023-05-08T10:44:50;101858.44;;;17.38;73.05
71424;BME280;59240;51.370;-0.486;2023-05-08T10:47:23;101866.84;;;17.49;73.15
71424;BME280;59240;51.370;-0.486;2023-05-08T10:53:06;101877.22;;;17.54;72.19
71424;BME280;59240;51.370;-0.486;2023-05-08T10:55:37;101873.63;;;17.56;72.52
71424;BME280;59240;51.370;-0.486;2023-05-08T10:58:08;101870.91;;;17.59;72.18
71424;BME280;59240;51.370;-0.486;2023-05-08T11:03:30;101854.28;;;17.57;71.69
71424;BME280;59240;51.370;-0.486;2023-05-08T11:05:59;101871.31;;;17.73;71.63
71424;BME280;59240;51.370;-0.486;2023-05-08T11:08:27;101877.63;;;17.68;70.43
71424;BME280;59240;51.370;-0.486;2023-05-08T11:13:55;101861.69;;;17.46;69.63
71424;BME280;59240;51.370;-0.486;2023-05-08T11:17:01;101878.16;;;17.53;70.08
71424;BME280;59240;51.370;-0.486;2023-05-08T11:19:28;101886.38;;;17.43;70.31
71424;BME280;59240;51.370;-0.486;2023-05-08T11:24:46;101875.81;;;17.17;70.63
71424;BME280;59240;51.370;-0.486;2023-05-08T11:27:14;101875.22;;;17.07;69.70
71424;BME280;59240;51.370;-0.486;2023-05-08T11:29:43;101847.84;;;16.85;70.95
71424;BME280;59240;51.370;-0.486;2023-05-08T11:32:10;101878.47;;;16.87;70.85
71424;BME280;59240;51.370;-0.486;2023-05-08T11:34:46;101880.13;;;16.91;72.05
71424;BME280;59240;51.370;-0.486;2023-05-08T11:37:19;101873.94;;;16.92;72.82
71424;BME280;59240;51.370;-0.486;2023-05-08T11:39:46;101881.66;;;16.99;72.20
71424;BME280;59240;51.370;-0.486;2023-05-08T11:42:33;101882.38;;;17.04;74.59
71424;BME280;59240;51.370;-0.486;2023-05-08T11:45:08;101894.69;;;17.02;73.14
71424;BME280;59240;51.370;-0.486;2023-05-08T11:47:43;101892.34;;;16.92;74.58
71424;BME280;59240;51.370;-0.486;2023-05-08T11:50:11;101899.91;;;16.75;73.53
71424;BME280;59240;51.370;-0.486;2023-05-08T11:52:40;101899.34;;;16.64;74.68
71424;BME280;59240;51.370;-0.486;2023-05-08T11:55:09;101893.63;;;16.50;74.35
71424;BME280;59240;51.370;-0.486;2023-05-08T11:57:36;101886.97;;;16.36;75.44
71424;BME280;59240;51.370;-0.486;2023-05-08T12:00:08;101883.53;;;16.34;75.65
71424;BME280;59240;51.370;-0.486;2023-05-08T12:02:36;101858.72;;;16.13;76.05
71424;BME280;59240;51.370;-0.486;2023-05-08T12:05:02;101892.41;;;16.30;76.29
71424;BME280;59240;51.370;-0.486;2023-05-08T12:07:29;101869.91;;;16.20;76.53
71424;BME280;59240;51.370;-0.486;2023-05-08T12:09:56;101881.19;;;16.24;76.40
71424;BME280;59240;51.370;-0.486;2023-05-08T12:12:35;101832.75;;;16.01;77.59
71424;BME280;59240;51.370;-0.486;2023-05-08T12:15:07;101860.38;;;16.16;77.17
71424;BME280;59240;51.370;-0.486;2023-05-08T12:17:34;101856.19;;;16.09;77.06
71424;BME280;59240;51.370;-0.486;2023-05-08T12:20:12;101886.66;;;16.16;77.98
71424;BME280;59240;51.370;-0.486;2023-05-08T12:22:40;101885.81;;;16.16;77.26
71424;BME280;59240;51.370;-0.486;2023-05-08T12:25:09;101877.06;;;16.15;77.57
71424;BME280;59240;51.370;-0.486;2023-05-08T12:27:37;101871.88;;;16.12;77.28
71424;BME280;59240;51.370;-0.486;2023-05-08T12:30:09;101868.38;;;16.13;78.67
71424;BME280;59240;51.370;-0.486;2023-05-08T12:32:40;101865.75;;;16.11;77.72
71424;BME280;59240;51.370;-0.486;2023-05-08T12:35:08;101855.88;;;16.21;77.58
71424;BME280;59240;51.370;-0.486;2023-05-08T12:37:35;101845.34;;;16.21;77.77
71424;BME280;59240;51.370;-0.486;2023-05-08T12:40:03;101849.47;;;16.30;77.74
71424;BME280;59240;51.370;-0.486;2023-05-08T12:42:47;101812.94;;;16.21;77.70
71424;BME280;59240;51.370;-0.486;2023-05-08T12:45:19;101797.19;;;16.19;77.50
71424;BME280;59240;51.370;-0.486;2023-05-08T12:47:47;101824.91;;;16.31;77.49
71424;BME280;59240;51.370;-0.486;2023-05-08T12:50:16;101852.50;;;16.46;77.24
71424;BME280;59240;51.370;-0.486;2023-05-08T12:52:43;101870.84;;;16.49;77.43
71424;BME280;59240;51.370;-0.486;2023-05-08T12:55:26;101855.13;;;16.47;77.75
71424;BME280;59240;51.370;-0.486;2023-05-08T13:00:37;101852.44;;;16.49;77.72
71424;BME280;59240;51.370;-0.486;2023-05-08T13:03:04;101845.31;;;16.52;77.29
71424;BME280;59240;51.370;-0.486;2023-05-08T13:05:33;101849.66;;;16.53;77.15
71424;BME280;59240;51.370;-0.486;2023-05-08T13:08:02;101838.38;;;16.50;77.27
71424;BME280;59240;51.370;-0.486;2023-05-08T13:11:04;101835.75;;;16.50;77.41
71424;BME280;59240;51.370;-0.486;2023-05-08T13:13:33;101838.56;;;16.44;77.04
71424;BME280;59240;51.370;-0.486;2023-05-08T13:16:05;101838.44;;;16.48;77.52
71424;BME280;59240;51.370;-0.486;2023-05-08T13:18:33;101823.50;;;16.49;76.76
71424;BME280;59240;51.370;-0.486;2023-05-08T13:21:02;101797.47;;;16.39;77.06
71424;BME280;59240;51.370;-0.486;2023-05-08T13:23:31;101806.94;;;16.45;77.16
71424;BME280;59240;51.370;-0.486;2023-05-08T13:26:01;101814.53;;;16.56;76.83
71424;BME280;59240;51.370;-0.486;2023-05-08T13:28:27;101806.00;;;16.48;76.14